sensor_id;sensor_type;location;lat;lon;timestamp;pressure;altitude;pressure_sealevel;temperature
11926;BMP180;6022;48.768;18.608;2022-10-16T00:01:43;98779.06;;;14.18
11926;BMP180;6022;48.768;18.608;2022-10-16T00:04:10;98779.06;;;14.18
11926;BMP180;6022;48.768;18.608;2022-10-16T00:06:38;98773.94;;;14.18
11926;BMP180;6022;48.768;18.608;2022-10-16T00:09:06;98767.22;;;14.17
11926;BMP180;6022;48.768;18.608;2022-10-16T00:11:37;98773.03;;;14.19
11926;BMP180;6022;48.768;18.608;2022-10-16T00:14:08;98769.78;;;14.17
11926;BMP180;6022;48.768;18.608;2022-10-16T00:16:36;98769.03;;;14.15
11926;BMP180;6022;48.768;18.608;2022-10-16T00:19:05;98776.84;;;14.13
11926;BMP180;6022;48.768;18.608;2022-10-16T00:21:33;98772.53;;;14.14
11926;BMP180;6022;48.768;18.608;2022-10-16T00:24:04;98769.88;;;14.15
11926;BMP180;6022;48.768;18.608;2022-10-16T00:26:34;98762.44;;;14.12
11926;BMP180;6022;48.768;18.608;2022-10-16T00:29:02;98770.09;;;14.12
11926;BMP180;6022;48.768;18.608;2022-10-16T00:31:30;98771.84;;;14.12
11926;BMP180;6022;48.768;18.608;2022-10-16T00:33:58;98772.66;;;14.12
11926;BMP180;6022;48.768;18.608;2022-10-16T00:36:26;98773.44;;;14.13
11926;BMP180;6022;48.768;18.608;2022-10-16T00:38:56;98774.16;;;14.15
11926;BMP180;6022;48.768;18.608;2022-10-16T00:41:27;98773.44;;;14.13
11926;BMP180;6022;48.768;18.608;2022-10-16T00:44:02;98775.09;;;14.14
11926;BMP180;6022;48.768;18.608;2022-10-16T00:46:40;98780.91;;;14.16
11926;BMP180;6022;48.768;18.608;2022-10-16T00:49:16;98779.50;;;14.12
11926;BMP180;6022;48.768;18.608;2022-10-16T00:51:50;98788.06;;;14.11
11926;BMP180;6022;48.768;18.608;2022-10-16T00:54:29;98789.00;;;14.10
11926;BMP180;6022;48.768;18.608;2022-10-16T00:57:02;98790.75;;;14.09
11926;BMP180;6022;48.768;18.608;2022-10-16T00:59:37;98787.34;;;14.09
11926;BMP180;6022;48.768;18.608;2022-10-16T01:02:08;98795.94;;;14.08
11926;BMP180;6022;48.768;18.608;2022-10-16T01:04:41;98796.06;;;14.06
11926;BMP180;6022;48.768;18.608;2022-10-16T01:13:19;98796.25;;;14.03
11926;BMP180;6022;48.768;18.608;2022-10-16T01:16:07;98794.31;;;14.07
11926;BMP180;6022;48.768;18.608;2022-10-16T01:18:54;98799.41;;;14.07
11926;BMP180;6022;48.768;18.608;2022-10-16T01:21:31;98796.16;;;14.05
11926;BMP180;6022;48.768;18.608;2022-10-16T01:35:43;98788.50;;;14.05
11926;BMP180;6022;48.768;18.608;2022-10-16T01:38:19;98794.66;;;14.02
11926;BMP180;6022;48.768;18.608;2022-10-16T01:41:00;98799.09;;;13.99
11926;BMP180;6022;48.768;18.608;2022-10-16T01:43:36;98800.97;;;13.97
11926;BMP180;6022;48.768;18.608;2022-10-16T01:46:07;98797.69;;;13.95
11926;BMP180;6022;48.768;18.608;2022-10-16T01:48:37;98802.09;;;13.93
11926;BMP180;6022;48.768;18.608;2022-10-16T01:51:15;98810.47;;;13.95
11926;BMP180;6022;48.768;18.608;2022-10-16T01:53:53;98807.19;;;13.93
11926;BMP180;6022;48.768;18.608;2022-10-16T01:56:22;98807.19;;;13.93
11926;BMP180;6022;48.768;18.608;2022-10-16T01:59:00;98810.47;;;13.95
11926;BMP180;6022;48.768;18.608;2022-10-16T02:01:33;98805.34;;;13.95
11926;BMP180;6022;48.768;18.608;2022-10-16T02:04:13;98807.09;;;13.95
11926;BMP180;6022;48.768;18.608;2022-10-16T02:06:42;98811.50;;;13.93
11926;BMP180;6022;48.768;18.608;2022-10-16T02:09:10;98808.09;;;13.92
11926;BMP180;6022;48.768;18.608;2022-10-16T02:11:38;98805.56;;;13.92
11926;BMP180;6022;48.768;18.608;2022-10-16T02:14:06;98805.56;;;13.92
11926;BMP180;6022;48.768;18.608;2022-10-16T02:16:44;98808.09;;;13.92
11926;BMP180;6022;48.768;18.608;2022-10-16T02:19:13;98808.34;;;13.89
11926;BMP180;6022;48.768;18.608;2022-10-16T02:21:58;98806.69;;;13.88
11926;BMP180;6022;48.768;18.608;2022-10-16T02:25:04;98811.19;;;13.85
11926;BMP180;6022;48.768;18.608;2022-10-16T02:27:57;98813.28;;;13.80
11926;BMP180;6022;48.768;18.608;2022-10-16T02:33:02;98822.38;;;13.71
11926;BMP180;6022;48.768;18.608;2022-10-16T02:35:31;98820.75;;;13.70
11926;BMP180;6022;48.768;18.608;2022-10-16T02:38:00;98825.16;;;13.68
11926;BMP180;6022;48.768;18.608;2022-10-16T02:40:28;98829.41;;;13.68
11926;BMP180;6022;48.768;18.608;2022-10-16T02:42:56;98831.06;;;13.69
11926;BMP180;6022;48.768;18.608;2022-10-16T02:45:23;98831.16;;;13.67
11926;BMP180;6022;48.768;18.608;2022-10-16T02:47:51;98819.22;;;13.68
11926;BMP180;6022;48.768;18.608;2022-10-16T02:50:18;98833.59;;;13.69
11926;BMP180;6022;48.768;18.608;2022-10-16T02:52:46;98826.75;;;13.69
11926;BMP180;6022;48.768;18.608;2022-10-16T02:55:14;98823.41;;;13.69
11926;BMP180;6022;48.768;18.608;2022-10-16T02:57:42;98832.66;;;13.70
11926;BMP180;6022;48.768;18.608;2022-10-16T03:00:14;98837.56;;;13.73
11926;BMP180;6022;48.768;18.608;2022-10-16T03:02:43;98842.66;;;13.73
11926;BMP180;6022;48.768;18.608;2022-10-16T03:05:10;98836.94;;;13.69
11926;BMP180;6022;48.768;18.608;2022-10-16T03:07:38;98838.81;;;13.67
11926;BMP180;6022;48.768;18.608;2022-10-16T03:10:07;98840.63;;;13.65
11926;BMP180;6022;48.768;18.608;2022-10-16T03:12:34;98845.94;;;13.62
11926;BMP180;6022;48.768;18.608;2022-10-16T03:15:02;98851.25;;;13.59
11926;BMP180;6022;48.768;18.608;2022-10-16T03:17:32;98857.41;;;13.57
11926;BMP180;6022;48.768;18.608;2022-10-16T03:20:00;98851.47;;;13.57
11926;BMP180;6022;48.768;18.608;2022-10-16T03:22:27;98860.75;;;13.58
11926;BMP180;6022;48.768;18.608;2022-10-16T03:24:54;98860.75;;;13.58
11926;BMP180;6022;48.768;18.608;2022-10-16T03:27:22;98859.81;;;13.58
11926;BMP180;6022;48.768;18.608;2022-10-16T03:29:49;98858.91;;;13.59
11926;BMP180;6022;48.768;18.608;2022-10-16T03:32:17;98859.81;;;13.58
11926;BMP180;6022;48.768;18.608;2022-10-16T03:34:45;98858.81;;;13.61
11926;BMP180;6022;48.768;18.608;2022-10-16T03:37:13;98861.47;;;13.59
11926;BMP180;6022;48.768;18.608;2022-10-16T03:39:40;98863.91;;;13.61
11926;BMP180;6022;48.768;18.608;2022-10-16T03:42:07;98860.66;;;13.59
11926;BMP180;6022;48.768;18.608;2022-10-16T03:44:34;98867.47;;;13.58
11926;BMP180;6022;48.768;18.608;2022-10-16T03:47:02;98864.91;;;13.58
11926;BMP180;6022;48.768;18.608;2022-10-16T03:49:29;98870.00;;;13.58
11926;BMP180;6022;48.768;18.608;2022-10-16T03:51:57;98868.41;;;13.58
11926;BMP180;6022;48.768;18.608;2022-10-16T03:54:24;98870.94;;;13.58
11926;BMP180;6022;48.768;18.608;2022-10-16T03:56:52;98875.09;;;13.58
11926;BMP180;6022;48.768;18.608;2022-10-16T03:59:19;98877.47;;;13.61
11926;BMP180;6022;48.768;18.608;2022-10-16T04:01:46;98885.22;;;13.60
11926;BMP180;6022;48.768;18.608;2022-10-16T04:04:14;98882.66;;;13.60
11926;BMP180;6022;48.768;18.608;2022-10-16T04:06:41;98882.75;;;13.58
11926;BMP180;6022;48.768;18.608;2022-10-16T04:09:09;98885.31;;;13.58
11926;BMP180;6022;48.768;18.608;2022-10-16T04:11:36;98879.50;;;13.57
11926;BMP180;6022;48.768;18.608;2022-10-16T04:14:03;98883.78;;;13.56
11926;BMP180;6022;48.768;18.608;2022-10-16T04:16:31;98881.34;;;13.55
11926;BMP180;6022;48.768;18.608;2022-10-16T04:18:58;98872.88;;;13.54
11926;BMP180;6022;48.768;18.608;2022-10-16T04:21:25;98871.25;;;13.53
11926;BMP180;6022;48.768;18.608;2022-10-16T04:23:53;98869.72;;;13.51
11926;BMP180;6022;48.768;18.608;2022-10-16T04:26:20;98866.69;;;13.46
11926;BMP180;6022;48.768;18.608;2022-10-16T04:28:48;98867.09;;;13.40
11926;BMP180;6022;48.768;18.608;2022-10-16T04:31:15;98874.94;;;13.37
11926;BMP180;6022;48.768;18.608;2022-10-16T04:33:43;98868.09;;;13.25
11926;BMP180;6022;48.768;18.608;2022-10-16T04:36:11;98869.22;;;13.21
11926;BMP180;6022;48.768;18.608;2022-10-16T04:38:40;98871.47;;;13.13
11926;BMP180;6022;48.768;18.608;2022-10-16T04:41:08;98874.34;;;13.09
11926;BMP180;6022;48.768;18.608;2022-10-16T04:43:35;98882.41;;;13.03
11926;BMP180;6022;48.768;18.608;2022-10-16T04:46:02;98883.59;;;12.97
11926;BMP180;6022;48.768;18.608;2022-10-16T04:48:32;98876.16;;;12.94
11926;BMP180;6022;48.768;18.608;2022-10-16T04:50:59;98873.69;;;12.93
11926;BMP180;6022;48.768;18.608;2022-10-16T04:53:26;98862.72;;;12.92
11926;BMP180;6022;48.768;18.608;2022-10-16T04:55:54;98861.28;;;12.88
11926;BMP180;6022;48.768;18.608;2022-10-16T04:58:23;98868.31;;;12.85
11926;BMP180;6022;48.768;18.608;2022-10-16T05:00:50;98853.84;;;12.85
11926;BMP180;6022;48.768;18.608;2022-10-16T05:03:17;98863.13;;;12.86
11926;BMP180;6022;48.768;18.608;2022-10-16T05:05:47;98869.25;;;12.84
11926;BMP180;6022;48.768;18.608;2022-10-16T05:08:15;98865.31;;;12.79
11926;BMP180;6022;48.768;18.608;2022-10-16T05:10:44;98874.41;;;12.83
11926;BMP180;6022;48.768;18.608;2022-10-16T05:13:12;98877.16;;;12.80
11926;BMP180;6022;48.768;18.608;2022-10-16T05:15:40;98866.97;;;12.80
11926;BMP180;6022;48.768;18.608;2022-10-16T05:18:08;98866.22;;;12.78
11926;BMP180;6022;48.768;18.608;2022-10-16T05:20:36;98872.25;;;12.77
11926;BMP180;6022;48.768;18.608;2022-10-16T05:23:03;98874.97;;;12.74
11926;BMP180;6022;48.768;18.608;2022-10-16T05:25:30;98871.63;;;12.73
11926;BMP180;6022;48.768;18.608;2022-10-16T05:27:58;98874.97;;;12.74
11926;BMP180;6022;48.768;18.608;2022-10-16T05:30:25;98892.72;;;12.75
11926;BMP180;6022;48.768;18.608;2022-10-16T05:32:52;98894.22;;;12.78
11926;BMP180;6022;48.768;18.608;2022-10-16T05:35:21;98892.16;;;12.84
11926;BMP180;6022;48.768;18.608;2022-10-16T05:37:48;98902.16;;;12.99
11926;BMP180;6022;48.768;18.608;2022-10-16T05:40:15;98912.16;;;13.15
11926;BMP180;6022;48.768;18.608;2022-10-16T05:42:43;98915.72;;;13.37
11926;BMP180;6022;48.768;18.608;2022-10-16T05:45:11;98925.50;;;13.55
11926;BMP180;6022;48.768;18.608;2022-10-16T05:47:39;98920.19;;;13.70
11926;BMP180;6022;48.768;18.608;2022-10-16T05:50:07;98933.50;;;13.86
11926;BMP180;6022;48.768;18.608;2022-10-16T05:52:34;98931.16;;;14.08
11926;BMP180;6022;48.768;18.608;2022-10-16T05:55:02;98940.91;;;14.26
11926;BMP180;6022;48.768;18.608;2022-10-16T05:57:30;98936.34;;;14.42
11926;BMP180;6022;48.768;18.608;2022-10-16T05:59:57;98943.69;;;14.46
11926;BMP180;6022;48.768;18.608;2022-10-16T06:02:26;98954.84;;;14.45
11926;BMP180;6022;48.768;18.608;2022-10-16T06:04:54;98953.63;;;14.38
11926;BMP180;6022;48.768;18.608;2022-10-16T06:07:22;98962.31;;;14.36
11926;BMP180;6022;48.768;18.608;2022-10-16T06:09:53;98964.25;;;14.33
11926;BMP180;6022;48.768;18.608;2022-10-16T06:12:23;98970.28;;;14.32
11926;BMP180;6022;48.768;18.608;2022-10-16T06:14:50;98976.81;;;14.36
11926;BMP180;6022;48.768;18.608;2022-10-16T06:17:18;98967.31;;;14.37
11926;BMP180;6022;48.768;18.608;2022-10-16T06:19:46;98963.41;;;14.44
11926;BMP180;6022;48.768;18.608;2022-10-16T06:22:13;98975.19;;;14.58
11926;BMP180;6022;48.768;18.608;2022-10-16T06:24:41;98969.34;;;14.68
11926;BMP180;6022;48.768;18.608;2022-10-16T06:27:08;98967.38;;;14.72
11926;BMP180;6022;48.768;18.608;2022-10-16T06:29:35;98971.19;;;14.66
11926;BMP180;6022;48.768;18.608;2022-10-16T06:32:02;98972.81;;;14.67
11926;BMP180;6022;48.768;18.608;2022-10-16T06:34:29;98973.63;;;14.68
11926;BMP180;6022;48.768;18.608;2022-10-16T06:36:56;98984.47;;;14.71
11926;BMP180;6022;48.768;18.608;2022-10-16T06:39:24;98982.38;;;14.76
11926;BMP180;6022;48.768;18.608;2022-10-16T06:41:51;98981.81;;;14.83
11926;BMP180;6022;48.768;18.608;2022-10-16T06:44:18;98984.78;;;15.01
11926;BMP180;6022;48.768;18.608;2022-10-16T06:46:45;98988.19;;;15.12
11926;BMP180;6022;48.768;18.608;2022-10-16T06:49:13;98986.78;;;15.20
11926;BMP180;6022;48.768;18.608;2022-10-16T06:51:42;98988.84;;;15.15
11926;BMP180;6022;48.768;18.608;2022-10-16T06:54:09;98986.28;;;15.15
11926;BMP180;6022;48.768;18.608;2022-10-16T06:56:37;98985.56;;;15.13
11926;BMP180;6022;48.768;18.608;2022-10-16T06:59:04;98992.78;;;15.19
11926;BMP180;6022;48.768;18.608;2022-10-16T07:01:32;98998.44;;;15.35
11926;BMP180;6022;48.768;18.608;2022-10-16T07:04:01;99003.38;;;15.60
11926;BMP180;6022;48.768;18.608;2022-10-16T07:06:33;98996.88;;;15.88
11926;BMP180;6022;48.768;18.608;2022-10-16T07:09:05;98997.03;;;16.20
11926;BMP180;6022;48.768;18.608;2022-10-16T07:11:34;99008.88;;;16.31
11926;BMP180;6022;48.768;18.608;2022-10-16T07:14:02;99013.09;;;16.32
11926;BMP180;6022;48.768;18.608;2022-10-16T07:16:32;99012.94;;;16.12
11926;BMP180;6022;48.768;18.608;2022-10-16T07:19:02;99016.91;;;16.05
11926;BMP180;6022;48.768;18.608;2022-10-16T07:21:33;99023.75;;;15.94
11926;BMP180;6022;48.768;18.608;2022-10-16T07:24:11;99022.22;;;15.81
11926;BMP180;6022;48.768;18.608;2022-10-16T07:26:40;99018.38;;;15.64
11926;BMP180;6022;48.768;18.608;2022-10-16T07:29:17;99024.50;;;15.51
11926;BMP180;6022;48.768;18.608;2022-10-16T07:31:48;99027.50;;;15.45
11926;BMP180;6022;48.768;18.608;2022-10-16T07:34:17;99019.25;;;15.42
11926;BMP180;6022;48.768;18.608;2022-10-16T07:36:48;99024.25;;;15.43
11926;BMP180;6022;48.768;18.608;2022-10-16T07:39:16;99030.78;;;15.47
11926;BMP180;6022;48.768;18.608;2022-10-16T07:41:44;99029.72;;;15.49
11926;BMP180;6022;48.768;18.608;2022-10-16T07:44:11;99039.50;;;15.45
11926;BMP180;6022;48.768;18.608;2022-10-16T07:46:38;99041.34;;;15.43
11926;BMP180;6022;48.768;18.608;2022-10-16T07:49:05;99036.00;;;15.46
11926;BMP180;6022;48.768;18.608;2022-10-16T07:51:33;99043.00;;;15.54
11926;BMP180;6022;48.768;18.608;2022-10-16T07:54:03;99045.47;;;15.67
11926;BMP180;6022;48.768;18.608;2022-10-16T07:56:31;99045.75;;;15.86
11926;BMP180;6022;48.768;18.608;2022-10-16T07:58:59;99052.50;;;15.97
11926;BMP180;6022;48.768;18.608;2022-10-16T08:01:29;99043.81;;;16.22
11926;BMP180;6022;48.768;18.608;2022-10-16T08:03:57;99041.59;;;16.39
11926;BMP180;6022;48.768;18.608;2022-10-16T08:06:24;99040.31;;;16.55
11926;BMP180;6022;48.768;18.608;2022-10-16T08:08:55;99045.06;;;16.60
11926;BMP180;6022;48.768;18.608;2022-10-16T08:11:23;99041.69;;;16.59
11926;BMP180;6022;48.768;18.608;2022-10-16T08:13:50;99048.31;;;16.62
11926;BMP180;6022;48.768;18.608;2022-10-16T08:16:18;99052.31;;;16.55
11926;BMP180;6022;48.768;18.608;2022-10-16T08:18:45;99048.22;;;16.52
11926;BMP180;6022;48.768;18.608;2022-10-16T08:21:20;99053.44;;;16.51
11926;BMP180;6022;48.768;18.608;2022-10-16T08:23:53;99063.00;;;16.49
11926;BMP180;6022;48.768;18.608;2022-10-16T08:26:25;99065.34;;;16.41
11926;BMP180;6022;48.768;18.608;2022-10-16T08:28:54;99077.69;;;16.36
11926;BMP180;6022;48.768;18.608;2022-10-16T08:31:23;99071.16;;;16.32
11926;BMP180;6022;48.768;18.608;2022-10-16T08:33:50;99070.00;;;16.36
11926;BMP180;6022;48.768;18.608;2022-10-16T08:36:19;99065.22;;;16.53
11926;BMP180;6022;48.768;18.608;2022-10-16T08:38:50;99060.88;;;16.75
11926;BMP180;6022;48.768;18.608;2022-10-16T08:41:31;99067.22;;;17.02
11926;BMP180;6022;48.768;18.608;2022-10-16T08:50:02;99069.81;;;17.34
11926;BMP180;6022;48.768;18.608;2022-10-16T08:52:34;99076.56;;;17.35
11926;BMP180;6022;48.768;18.608;2022-10-16T08:55:04;99071.88;;;17.40
11926;BMP180;6022;48.768;18.608;2022-10-16T08:57:33;99072.09;;;17.47
11926;BMP180;6022;48.768;18.608;2022-10-16T09:00:12;99069.63;;;17.46
11926;BMP180;6022;48.768;18.608;2022-10-16T09:08:46;99081.66;;;17.45
11926;BMP180;6022;48.768;18.608;2022-10-16T09:14:16;99086.75;;;17.56
11926;BMP180;6022;48.768;18.608;2022-10-16T09:17:00;99085.38;;;17.52
11926;BMP180;6022;48.768;18.608;2022-10-16T09:19:43;99097.94;;;17.55
11926;BMP180;6022;48.768;18.608;2022-10-16T09:22:17;99090.91;;;17.57
11926;BMP180;6022;48.768;18.608;2022-10-16T09:24:45;99103.00;;;17.66
11926;BMP180;6022;48.768;18.608;2022-10-16T09:27:14;99101.78;;;17.81
11926;BMP180;6022;48.768;18.608;2022-10-16T09:29:42;99105.66;;;17.96
11926;BMP180;6022;48.768;18.608;2022-10-16T09:32:21;99099.72;;;18.16
11926;BMP180;6022;48.768;18.608;2022-10-16T09:34:53;99099.44;;;18.39
11926;BMP180;6022;48.768;18.608;2022-10-16T09:37:24;99110.75;;;18.66
11926;BMP180;6022;48.768;18.608;2022-10-16T09:39:54;99099.22;;;18.99
11926;BMP180;6022;48.768;18.608;2022-10-16T09:42:33;99101.34;;;19.24
11926;BMP180;6022;48.768;18.608;2022-10-16T09:45:02;99093.63;;;19.43
11926;BMP180;6022;48.768;18.608;2022-10-16T09:47:31;99095.22;;;19.63
11926;BMP180;6022;48.768;18.608;2022-10-16T09:50:25;99095.63;;;19.77
11926;BMP180;6022;48.768;18.608;2022-10-16T09:53:13;99099.59;;;19.81
11926;BMP180;6022;48.768;18.608;2022-10-16T09:55:52;99097.78;;;19.72
11926;BMP180;6022;48.768;18.608;2022-10-16T09:58:24;99099.69;;;19.79
11926;BMP180;6022;48.768;18.608;2022-10-16T10:00:54;99097.66;;;19.92
11926;BMP180;6022;48.768;18.608;2022-10-16T10:03:44;99094.53;;;19.98
11926;BMP180;6022;48.768;18.608;2022-10-16T10:06:28;99080.16;;;20.05
11926;BMP180;6022;48.768;18.608;2022-10-16T10:09:03;99085.81;;;20.18
11926;BMP180;6022;48.768;18.608;2022-10-16T10:11:43;99085.94;;;20.52
11926;BMP180;6022;48.768;18.608;2022-10-16T10:14:37;99096.44;;;21.22
11926;BMP180;6022;48.768;18.608;2022-10-16T10:19:53;99089.13;;;22.11
11926;BMP180;6022;48.768;18.608;2022-10-16T10:28:09;99099.25;;;22.22
11926;BMP180;6022;48.768;18.608;2022-10-16T10:31:03;99100.84;;;21.98
11926;BMP180;6022;48.768;18.608;2022-10-16T10:36:37;99103.91;;;20.98
11926;BMP180;6022;48.768;18.608;2022-10-16T10:39:13;99107.34;;;20.62
11926;BMP180;6022;48.768;18.608;2022-10-16T10:42:12;99108.22;;;20.53
11926;BMP180;6022;48.768;18.608;2022-10-16T10:47:57;99102.78;;;21.10
11926;BMP180;6022;48.768;18.608;2022-10-16T10:50:45;99104.25;;;21.29
11926;BMP180;6022;48.768;18.608;2022-10-16T11:06:05;99106.81;;;20.95
11926;BMP180;6022;48.768;18.608;2022-10-16T11:08:52;99113.84;;;20.66
11926;BMP180;6022;48.768;18.608;2022-10-16T11:11:42;99111.72;;;20.52
11926;BMP180;6022;48.768;18.608;2022-10-16T11:14:26;99102.81;;;20.38
11926;BMP180;6022;48.768;18.608;2022-10-16T11:17:08;99112.22;;;20.29
11926;BMP180;6022;48.768;18.608;2022-10-16T11:19:48;99111.28;;;20.21
11926;BMP180;6022;48.768;18.608;2022-10-16T11:22:30;99107.41;;;19.98
11926;BMP180;6022;48.768;18.608;2022-10-16T11:28:11;99119.22;;;19.82
11926;BMP180;6022;48.768;18.608;2022-10-16T11:31:02;99117.84;;;19.78
11926;BMP180;6022;48.768;18.608;2022-10-16T11:33:39;99122.44;;;19.74
11926;BMP180;6022;48.768;18.608;2022-10-16T11:36:23;99124.09;;;19.75
11926;BMP180;6022;48.768;18.608;2022-10-16T11:42:03;99130.59;;;19.70
11926;BMP180;6022;48.768;18.608;2022-10-16T11:47:45;99119.59;;;19.77
11926;BMP180;6022;48.768;18.608;2022-10-16T11:50:39;99126.41;;;19.88
11926;BMP180;6022;48.768;18.608;2022-10-16T11:53:21;99127.09;;;19.90
11926;BMP180;6022;48.768;18.608;2022-10-16T11:55:50;99126.56;;;19.86
11926;BMP180;6022;48.768;18.608;2022-10-16T11:58:38;99127.06;;;19.80
11926;BMP180;6022;48.768;18.608;2022-10-16T12:02:07;99137.13;;;19.83
11926;BMP180;6022;48.768;18.608;2022-10-16T12:04:51;99132.59;;;19.76
11926;BMP180;6022;48.768;18.608;2022-10-16T12:07:38;99124.09;;;19.75
11926;BMP180;6022;48.768;18.608;2022-10-16T12:10:23;99130.47;;;19.81
11926;BMP180;6022;48.768;18.608;2022-10-16T12:12:54;99130.06;;;19.85
11926;BMP180;6022;48.768;18.608;2022-10-16T12:15:33;99125.47;;;19.89
11926;BMP180;6022;48.768;18.608;2022-10-16T12:18:23;99116.34;;;19.75
11926;BMP180;6022;48.768;18.608;2022-10-16T12:20:58;99125.19;;;19.73
11926;BMP180;6022;48.768;18.608;2022-10-16T12:23:26;99120.84;;;19.64
11926;BMP180;6022;48.768;18.608;2022-10-16T12:26:00;99122.75;;;19.53
11926;BMP180;6022;48.768;18.608;2022-10-16T12:28:31;99121.09;;;19.52
11926;BMP180;6022;48.768;18.608;2022-10-16T12:31:06;99120.03;;;19.45
11926;BMP180;6022;48.768;18.608;2022-10-16T12:34:02;99123.53;;;19.44
11926;BMP180;6022;48.768;18.608;2022-10-16T12:36:35;99121.63;;;19.46
11926;BMP180;6022;48.768;18.608;2022-10-16T12:39:04;99130.84;;;19.39
11926;BMP180;6022;48.768;18.608;2022-10-16T12:41:35;99123.53;;;19.53
11926;BMP180;6022;48.768;18.608;2022-10-16T12:44:04;99127.75;;;19.54
11926;BMP180;6022;48.768;18.608;2022-10-16T12:46:39;99118.53;;;19.89
11926;BMP180;6022;48.768;18.608;2022-10-16T12:51:42;99104.19;;;20.32
11926;BMP180;6022;48.768;18.608;2022-10-16T12:54:39;99102.47;;;20.59
11926;BMP180;6022;48.768;18.608;2022-10-16T13:03:54;99117.28;;;20.67
11926;BMP180;6022;48.768;18.608;2022-10-16T13:15:35;99110.78;;;20.53
11926;BMP180;6022;48.768;18.608;2022-10-16T13:18:33;99107.94;;;20.47
11926;BMP180;6022;48.768;18.608;2022-10-16T13:27:27;99109.03;;;20.45
11926;BMP180;6022;48.768;18.608;2022-10-16T13:30:27;99121.13;;;20.44
11926;BMP180;6022;48.768;18.608;2022-10-16T13:35:55;99120.31;;;20.34
11926;BMP180;6022;48.768;18.608;2022-10-16T13:38:25;99122.69;;;20.18
11926;BMP180;6022;48.768;18.608;2022-10-16T13:41:02;99122.44;;;20.03
11926;BMP180;6022;48.768;18.608;2022-10-16T13:43:49;99126.56;;;19.86
11926;BMP180;6022;48.768;18.608;2022-10-16T13:46:24;99134.13;;;19.78
11926;BMP180;6022;48.768;18.608;2022-10-16T13:49:29;99133.84;;;19.72
11926;BMP180;6022;48.768;18.608;2022-10-16T13:51:59;99134.38;;;19.75
11926;BMP180;6022;48.768;18.608;2022-10-16T13:54:27;99123.00;;;19.78
11926;BMP180;6022;48.768;18.608;2022-10-16T13:57:05;99133.19;;;19.89
11926;BMP180;6022;48.768;18.608;2022-10-16T13:59:53;99137.91;;;19.93
11926;BMP180;6022;48.768;18.608;2022-10-16T14:02:35;99140.66;;;19.92
11926;BMP180;6022;48.768;18.608;2022-10-16T14:05:08;99136.72;;;19.88
11926;BMP180;6022;48.768;18.608;2022-10-16T14:07:38;99136.72;;;19.88
11926;BMP180;6022;48.768;18.608;2022-10-16T14:10:22;99139.00;;;19.81
11926;BMP180;6022;48.768;18.608;2022-10-16T14:13:05;99139.53;;;19.75
11926;BMP180;6022;48.768;18.608;2022-10-16T14:15:36;99138.44;;;19.68
11926;BMP180;6022;48.768;18.608;2022-10-16T14:18:04;99138.72;;;19.66
11926;BMP180;6022;48.768;18.608;2022-10-16T14:20:34;99136.53;;;19.61
11926;BMP180;6022;48.768;18.608;2022-10-16T14:25:46;99137.88;;;19.37
11926;BMP180;6022;48.768;18.608;2022-10-16T14:28:21;99138.16;;;19.34
11926;BMP180;6022;48.768;18.608;2022-10-16T14:30:57;99133.69;;;19.17
11926;BMP180;6022;48.768;18.608;2022-10-16T14:33:33;99136.50;;;19.14
11926;BMP180;6022;48.768;18.608;2022-10-16T14:38:49;99135.94;;;19.11
11926;BMP180;6022;48.768;18.608;2022-10-16T14:41:23;99138.94;;;19.06
11926;BMP180;6022;48.768;18.608;2022-10-16T14:43:55;99137.56;;;19.02
11926;BMP180;6022;48.768;18.608;2022-10-16T14:46:36;99141.56;;;18.95
11926;BMP180;6022;48.768;18.608;2022-10-16T14:51:40;99154.13;;;18.80
11926;BMP180;6022;48.768;18.608;2022-10-16T14:54:11;99159.78;;;18.74
11926;BMP180;6022;48.768;18.608;2022-10-16T14:56:55;99162.84;;;18.68
11926;BMP180;6022;48.768;18.608;2022-10-16T14:59:50;99160.09;;;18.60
11926;BMP180;6022;48.768;18.608;2022-10-16T15:02:33;99153.59;;;18.56
11926;BMP180;6022;48.768;18.608;2022-10-16T15:05:20;99141.94;;;18.52
11926;BMP180;6022;48.768;18.608;2022-10-16T15:07:50;99156.00;;;18.48
11926;BMP180;6022;48.768;18.608;2022-10-16T15:10:17;99155.56;;;18.43
11926;BMP180;6022;48.768;18.608;2022-10-16T15:12:46;99151.63;;;18.39
11926;BMP180;6022;48.768;18.608;2022-10-16T15:17:51;99156.13;;;18.26
11926;BMP180;6022;48.768;18.608;2022-10-16T15:20:20;99157.72;;;18.18
11926;BMP180;6022;48.768;18.608;2022-10-16T15:22:47;99163.50;;;18.11
11926;BMP180;6022;48.768;18.608;2022-10-16T15:25:41;99177.72;;;18.04
11926;BMP180;6022;48.768;18.608;2022-10-16T15:28:10;99179.03;;;17.98
11926;BMP180;6022;48.768;18.608;2022-10-16T15:30:39;99177.09;;;17.91
11926;BMP180;6022;48.768;18.608;2022-10-16T15:33:17;99189.50;;;17.86
11926;BMP180;6022;48.768;18.608;2022-10-16T15:35:49;99185.41;;;17.83
11926;BMP180;6022;48.768;18.608;2022-10-16T15:38:20;99184.41;;;17.75
11926;BMP180;6022;48.768;18.608;2022-10-16T15:40:48;99187.47;;;17.69
11926;BMP180;6022;48.768;18.608;2022-10-16T15:43:17;99189.13;;;17.59
11926;BMP180;6022;48.768;18.608;2022-10-16T15:46:05;99190.56;;;17.52
11926;BMP180;6022;48.768;18.608;2022-10-16T15:48:33;99200.63;;;17.44
11926;BMP180;6022;48.768;18.608;2022-10-16T15:51:06;99197.81;;;17.37
11926;BMP180;6022;48.768;18.608;2022-10-16T15:53:34;99194.13;;;17.30
11926;BMP180;6022;48.768;18.608;2022-10-16T15:56:07;99201.81;;;17.19
11926;BMP180;6022;48.768;18.608;2022-10-16T15:58:34;99205.75;;;17.12
11926;BMP180;6022;48.768;18.608;2022-10-16T16:01:02;99218.25;;;17.05
11926;BMP180;6022;48.768;18.608;2022-10-16T16:03:35;99219.53;;;17.00
11926;BMP180;6022;48.768;18.608;2022-10-16T16:06:12;99216.59;;;16.94
11926;BMP180;6022;48.768;18.608;2022-10-16T16:08:40;99217.06;;;16.88
11926;BMP180;6022;48.768;18.608;2022-10-16T16:11:10;99221.97;;;16.80
11926;BMP180;6022;48.768;18.608;2022-10-16T16:13:38;99227.09;;;16.69
11926;BMP180;6022;48.768;18.608;2022-10-16T16:16:15;99231.16;;;16.61
11926;BMP180;6022;48.768;18.608;2022-10-16T16:18:44;99238.63;;;16.53
11926;BMP180;6022;48.768;18.608;2022-10-16T16:21:12;99234.97;;;16.44
11926;BMP180;6022;48.768;18.608;2022-10-16T16:23:40;99238.09;;;16.37
11926;BMP180;6022;48.768;18.608;2022-10-16T16:26:24;99242.88;;;16.30
11926;BMP180;6022;48.768;18.608;2022-10-16T16:28:54;99250.59;;;16.18
11926;BMP180;6022;48.768;18.608;2022-10-16T16:31:30;99256.25;;;16.11